Terminal Aerodrome Forecast
Issued by NWS

Home | Current Version | Previous Version | Text Only | Print | Product List | Glossary On
Versions: 1 2 3 4 5 6 7 8 9 10 11 12 13 14
000
FTUS43 KGRR 251120
TAFJXN
TAF
KJXN 251120Z 2512/2612 18012KT P6SM -SHRA BKN050
     FM251300 20012G21KT P6SM -SHRA BKN035
     FM251800 22020G30KT P6SM VCTS BKN030CB
     FM260000 20011KT P6SM SCT040 SCT250=

USA.gov is the U.S. government's official web portal to all federal, state and local government web resources and services.